Windermere, Canada
Current Conditions -  °F | °C
As of 12:00 AM on Thursday 23 Oct 2014 (Local Time) from CYXC Reporting Station
Light Rain Light Rain  
Wind Chill: 41°   Ceiling: 4100
Heat Index: 45°   Visibility: 15mi
Dew Point: 43°   Wind: 7mph
Humidity: 93%   Direction: 200°SSW
Pressure: 29.77"   Gusts: NA
Location:  50.47°N, 115.97°W
Report Text: CYXC 230600Z 20006KT 15SM -RA OVC041 07/06 A2977 RMK SC8 SLP091
Loading
Personal Weather Stations






























Interactive Weather Map New forecast layout! Learn more

10-Day Weather Forecast

Advertisements
Track Severe Weather on mobile